aviador You're here:

KFSD Decoded Metar

SIOUX FALLS in SD, USA
Report Time2018-07-20 08:07:00
UTC Time2018-07-20 08:54:50
Flight Rules mvfr MVFR
Wind300° at 05 kt
W.Decomp.*RWY 27: 4.5 kt HW 2.1 kt RCW
RWY 33: 4.1 kt HW 2.9 kt LCW
RWY 21: 0.4 kt HW 5.0 kt RCW
W.Rank300° ranks 8
Current wind is below 300° avg. (9.8)
Visibility9999 m
Phenomena:N/A
Clouds:Broken 015 Hf
Expected CloudBase > 400 ft AGL from Temp-Dew spread
Ceiling1,500 ft
Temp17°C (ISA +5)
Dew Point16°C (94% RH)
QNH1011 hPa
Density Alt2,316 ft
Elevation1,430 ft
Report Wrong Elevation
Raw Report
KFSD 200807Z AUTO 30005KT 10SM BKN015 17/16 A2986=

Extra information for KFSD:More info

Metar Taf Metar & Taf Last 4 Metars F.Rules Stats Wind Profile Meteogram Temp Stats Airport Information Weather charts Add Link Nearby VenuesMetar ALERT Operation Metar Decoded Social comments

AIRNAV info for KFSD